Time;durP1;ratioP1;P1;durP2;ratioP2;P2;SDS_P1;SDS_P2;PMS_P1;PMS_P2;Temp;Humidity;BMP_temperature;BMP_pressure;BME280_temperature;BME280_humidity;BME280_pressure;Samples;Min_cycle;Max_cycle;Signal;HPM_P1;HPM_P2
2023/02/09 00:01:07;;;;;;;105.28;29.00;;;3.40;86.10;;;;;;5083071;28;20048;-54
2023/02/09 00:03:33;;;;;;;91.47;30.23;;;3.30;86.10;;;;;;5082805;28;20056;-54
2023/02/09 00:05:59;;;;;;;83.97;30.27;;;3.30;86.10;;;;;;5083055;28;20024;-55
2023/02/09 00:08:25;;;;;;;74.88;28.23;;;3.30;86.20;;;;;;5083151;28;20447;-54
2023/02/09 00:10:51;;;;;;;74.35;28.95;;;3.20;86.20;;;;;;5082857;28;20044;-55
2023/02/09 00:13:22;;;;;;;77.40;25.50;;;3.20;86.20;;;;;;5084247;28;20043;-54
2023/02/09 00:16:00;;;;;;;74.68;28.55;;;3.30;86.30;;;;;;5102105;28;20051;-54
2023/02/09 00:18:27;;;;;;;67.55;27.35;;;3.20;86.20;;;;;;5088244;28;20058;-54
2023/02/09 00:21:05;;;;;;;75.95;29.38;;;3.20;86.30;;;;;;5086951;28;20043;-54
2023/02/09 00:23:32;;;;;;;77.90;28.10;;;3.20;86.30;;;;;;5086871;28;20028;-54
2023/02/09 00:25:58;;;;;;;68.00;28.15;;;3.20;86.30;;;;;;5086782;28;20101;-54
2023/02/09 00:28:24;;;;;;;79.10;28.10;;;3.10;86.30;;;;;;5086686;28;20100;-54
2023/02/09 00:30:49;;;;;;;66.22;28.08;;;3.10;86.30;;;;;;5088026;28;20025;-55
2023/02/09 00:33:15;;;;;;;72.03;27.58;;;3.10;86.30;;;;;;5103488;28;20079;-54
2023/02/09 00:35:41;;;;;;;68.93;27.35;;;3.10;86.30;;;;;;5086378;28;20039;-54
2023/02/09 00:38:07;;;;;;;63.83;27.88;;;3.10;86.20;;;;;;5086549;28;20047;-54
2023/02/09 00:40:32;;;;;;;66.78;26.50;;;3.10;86.20;;;;;;5086313;28;20052;-54
2023/02/09 00:42:58;;;;;;;65.07;27.85;;;3.10;86.30;;;;;;5087746;28;20040;-54
2023/02/09 00:45:25;;;;;;;71.40;25.83;;;3.00;86.20;;;;;;5103179;28;20032;-54
2023/02/09 00:47:50;;;;;;;60.88;25.90;;;3.00;86.20;;;;;;5086362;28;20047;-54
2023/02/09 00:50:16;;;;;;;72.90;28.27;;;3.00;86.30;;;;;;5087739;28;20044;-54
2023/02/09 00:52:42;;;;;;;68.10;25.23;;;3.00;86.40;;;;;;5086160;28;20017;-54
2023/02/09 00:55:07;;;;;;;60.83;26.98;;;3.00;86.40;;;;;;5086114;28;20040;-54
2023/02/09 00:57:34;;;;;;;63.13;26.83;;;3.00;86.50;;;;;;5087770;28;20032;-54
2023/02/09 01:00:00;;;;;;;62.80;25.70;;;3.00;86.50;;;;;;5086830;28;20029;-54
2023/02/09 01:02:26;;;;;;;62.33;26.73;;;2.90;86.50;;;;;;5086192;28;20029;-54
2023/02/09 01:04:51;;;;;;;69.13;27.35;;;2.90;86.50;;;;;;5087439;28;20044;-54
2023/02/09 01:07:17;;;;;;;55.97;26.00;;;2.90;86.50;;;;;;5085997;28;20046;-54
2023/02/09 01:09:43;;;;;;;58.45;25.55;;;2.90;86.50;;;;;;5085843;28;20025;-54
2023/02/09 01:12:08;;;;;;;57.83;26.13;;;2.80;86.60;;;;;;5085898;28;20021;-54
2023/02/09 01:14:34;;;;;;;74.90;26.63;;;2.80;86.70;;;;;;5087170;28;20133;-54
2023/02/09 01:16:59;;;;;;;45.90;24.23;;;2.80;86.70;;;;;;5085654;28;20037;-54
2023/02/09 01:19:25;;;;;;;58.17;24.38;;;2.80;86.80;;;;;;5085673;28;20074;-54
2023/02/09 01:21:51;;;;;;;59.50;24.83;;;2.80;86.80;;;;;;5087247;28;20040;-54
2023/02/09 01:24:16;;;;;;;62.70;27.15;;;2.80;86.80;;;;;;5085684;28;20028;-55
2023/02/09 01:26:42;;;;;;;54.75;25.58;;;2.70;86.80;;;;;;5086184;28;20032;-54
2023/02/09 01:29:13;;;;;;;56.58;24.98;;;2.70;86.80;;;;;;5085518;28;20027;-54
2023/02/09 01:31:39;;;;;;;62.65;25.77;;;2.70;86.90;;;;;;5085548;28;20081;-54
2023/02/09 01:34:04;;;;;;;56.42;25.80;;;2.70;87.50;;;;;;5085445;28;20035;-54
2023/02/09 01:36:30;;;;;;;54.42;27.08;;;2.70;86.90;;;;;;5085451;28;20037;-54
2023/02/09 01:38:57;;;;;;;55.53;25.50;;;2.70;86.90;;;;;;5085253;28;20029;-54
2023/02/09 01:41:23;;;;;;;51.67;26.17;;;2.70;86.90;;;;;;5085406;28;20038;-54
2023/02/09 01:43:56;;;;;;;58.47;25.25;;;2.70;86.90;;;;;;5068478;28;20124;-54
2023/02/09 01:46:22;;;;;;;52.83;25.90;;;2.60;86.80;;;;;;5068260;28;20033;-54
2023/02/09 01:48:49;;;;;;;57.15;26.17;;;2.60;86.90;;;;;;5085090;28;20393;-54
2023/02/09 01:51:14;;;;;;;54.17;25.77;;;2.60;87.00;;;;;;5085440;28;20028;-54
2023/02/09 01:53:40;;;;;;;54.55;25.77;;;2.60;87.00;;;;;;5085276;28;20078;-54
2023/02/09 01:56:08;;;;;;;50.75;25.02;;;2.60;87.10;;;;;;5085340;28;20440;-54
2023/02/09 01:58:34;;;;;;;47.95;24.75;;;2.60;87.10;;;;;;5085141;28;20029;-54
2023/02/09 02:00:59;;;;;;;49.45;25.15;;;2.50;86.90;;;;;;5085103;28;20029;-54
2023/02/09 02:03:25;;;;;;;59.97;24.73;;;2.50;87.00;;;;;;5085017;28;20113;-54
2023/02/09 02:05:52;;;;;;;45.70;24.02;;;2.50;87.00;;;;;;5084747;28;20039;-54
2023/02/09 02:08:44;;;;;;;51.13;24.73;;;2.50;87.10;;;;;;5084923;28;20024;-54
2023/02/09 02:11:10;;;;;;;51.70;25.77;;;2.50;87.10;;;;;;5084908;28;20025;-54
2023/02/09 02:13:36;;;;;;;47.33;25.50;;;2.50;87.00;;;;;;5084787;28;20070;-55
2023/02/09 02:16:35;;;;;;;48.22;25.52;;;2.50;87.10;;;;;;5086216;28;20056;-54
2023/02/09 02:19:13;;;;;;;48.80;25.60;;;2.50;87.20;;;;;;5086009;28;20087;-54
2023/02/09 02:22:00;;;;;;;48.30;25.70;;;2.40;87.20;;;;;;5085996;28;20033;-54
2023/02/09 02:24:36;;;;;;;43.00;24.40;;;2.40;87.20;;;;;;5101229;28;20115;-54
2023/02/09 02:27:25;;;;;;;48.90;25.05;;;2.40;87.20;;;;;;5084562;28;20032;-54
2023/02/09 02:30:18;;;;;;;45.22;25.08;;;2.40;87.30;;;;;;5084494;28;20170;-54
2023/02/09 02:33:01;;;;;;;42.85;25.05;;;2.40;87.40;;;;;;5084515;28;20028;-53
2023/02/09 02:35:45;;;;;;;44.25;24.42;;;2.40;87.30;;;;;;5084415;28;20381;-54
2023/02/09 02:38:14;;;;;;;50.42;25.15;;;2.40;87.40;;;;;;5066613;28;20078;-54
2023/02/09 02:40:41;;;;;;;45.97;25.10;;;2.30;87.40;;;;;;5085645;28;20111;-54
2023/02/09 02:43:15;;;;;;;40.72;23.77;;;2.30;87.50;;;;;;5084243;28;20028;-54
2023/02/09 02:46:03;;;;;;;45.35;25.63;;;2.30;87.60;;;;;;5085262;28;20032;-54
2023/02/09 02:48:51;;;;;;;45.42;24.98;;;2.30;87.60;;;;;;5083904;28;20079;-55
2023/02/09 02:51:27;;;;;;;41.22;24.23;;;2.30;87.70;;;;;;5084014;28;20086;-54
2023/02/09 02:53:55;;;;;;;51.33;26.00;;;2.30;87.70;;;;;;5083841;28;20031;-54
2023/02/09 02:56:24;;;;;;;46.45;25.08;;;2.30;87.90;;;;;;5084005;28;20032;-54
2023/02/09 02:58:50;;;;;;;43.08;24.88;;;2.30;88.10;;;;;;5083800;28;20432;-54
2023/02/09 03:01:17;;;;;;;48.33;25.25;;;2.30;88.10;;;;;;5083820;28;20032;-54
2023/02/09 03:03:43;;;;;;;38.75;22.58;;;2.30;88.10;;;;;;5083567;28;20445;-54
2023/02/09 03:06:09;;;;;;;45.65;24.85;;;2.30;88.30;;;;;;5083586;28;20047;-54
2023/02/09 03:08:54;;;;;;;45.00;23.02;;;2.30;88.40;;;;;;5083621;28;20027;-54
2023/02/09 03:11:21;;;;;;;38.80;23.88;;;2.30;88.40;;;;;;5083519;28;20354;-54
2023/02/09 03:14:04;;;;;;;43.58;25.15;;;2.30;88.50;;;;;;5083592;28;20033;-54
2023/02/09 03:16:58;;;;;;;41.10;23.50;;;2.30;88.40;;;;;;5066874;28;20052;-54
2023/02/09 03:19:48;;;;;;;42.95;23.83;;;2.30;88.50;;;;;;5085091;28;20024;-54
2023/02/09 03:22:21;;;;;;;46.25;25.45;;;2.30;88.50;;;;;;5083695;28;20059;-54
2023/02/09 03:25:23;;;;;;;44.05;25.42;;;2.30;88.60;;;;;;5083365;28;20036;-54
2023/02/09 03:27:54;;;;;;;42.72;26.05;;;2.30;88.60;;;;;;5083431;28;20112;-54
2023/02/09 03:30:19;;;;;;;38.17;23.70;;;2.30;88.60;;;;;;5083432;28;20073;-54
2023/02/09 03:32:45;;;;;;;45.15;23.95;;;2.30;88.40;;;;;;5083417;28;20498;-54
2023/02/09 03:35:16;;;;;;;41.47;24.85;;;2.20;88.30;;;;;;5083400;28;20357;-54
2023/02/09 03:37:41;;;;;;;44.10;24.38;;;2.20;88.40;;;;;;5083429;28;20036;-54
2023/02/09 03:40:08;;;;;;;46.78;25.58;;;2.20;88.80;;;;;;5084704;28;20119;-54
2023/02/09 03:42:33;;;;;;;40.08;22.88;;;2.20;89.00;;;;;;5083318;28;20044;-54
2023/02/09 03:44:59;;;;;;;39.97;24.23;;;2.20;89.30;;;;;;5083132;28;20036;-54
2023/02/09 03:47:24;;;;;;;50.65;23.55;;;2.20;89.40;;;;;;5082893;28;20032;-53
2023/02/09 03:49:50;;;;;;;42.65;24.30;;;2.20;89.50;;;;;;5084497;28;20483;-54
2023/02/09 03:52:15;;;;;;;47.58;24.08;;;2.20;89.90;;;;;;5083121;28;20508;-56
2023/02/09 03:54:41;;;;;;;40.22;24.45;;;2.20;90.00;;;;;;5083238;28;20050;-56
2023/02/09 03:57:07;;;;;;;36.38;23.67;;;2.20;90.00;;;;;;5082993;28;20037;-56
2023/02/09 03:59:36;;;;;;;39.28;22.98;;;2.20;90.00;;;;;;5084617;28;20516;-56
2023/02/09 04:02:02;;;;;;;42.83;23.50;;;2.20;89.60;;;;;;5083231;28;20033;-56
2023/02/09 04:04:28;;;;;;;41.08;23.83;;;2.20;89.70;;;;;;5082983;28;20503;-56
2023/02/09 04:06:54;;;;;;;41.03;23.73;;;2.20;89.70;;;;;;5084362;28;20032;-56
2023/02/09 04:09:20;;;;;;;40.47;25.02;;;2.20;89.60;;;;;;5084391;28;20025;-56
2023/02/09 04:11:46;;;;;;;48.65;26.00;;;2.20;89.40;;;;;;5083036;28;20086;-56
2023/02/09 04:14:11;;;;;;;40.00;25.38;;;2.20;89.30;;;;;;5084308;28;20158;-56
2023/02/09 04:16:37;;;;;;;40.00;25.48;;;2.20;89.20;;;;;;5084178;28;20469;-56
2023/02/09 04:19:02;;;;;;;38.00;24.50;;;2.20;89.20;;;;;;5066097;28;20024;-56
2023/02/09 04:21:28;;;;;;;38.05;23.83;;;2.20;89.10;;;;;;5083031;28;20029;-57
2023/02/09 04:23:54;;;;;;;40.13;25.33;;;2.20;89.20;;;;;;5065958;28;20099;-56
2023/02/09 04:26:19;;;;;;;37.53;24.83;;;2.20;89.10;;;;;;5084158;28;20056;-56
2023/02/09 04:28:45;;;;;;;41.78;25.80;;;2.10;89.00;;;;;;5084235;28;20048;-56
2023/02/09 04:31:10;;;;;;;39.58;24.48;;;2.10;88.90;;;;;;5084024;28;20021;-56
2023/02/09 04:33:36;;;;;;;41.30;25.85;;;2.10;88.90;;;;;;5082970;28;20055;-56
2023/02/09 04:36:02;;;;;;;48.20;27.60;;;2.10;88.90;;;;;;5083527;28;20528;-56
2023/02/09 04:38:27;;;;;;;71.07;29.08;;;2.10;88.90;;;;;;5083040;28;20043;-56
2023/02/09 04:40:53;;;;;;;67.10;28.30;;;2.00;88.80;;;;;;5082799;28;20441;-56
2023/02/09 04:43:19;;;;;;;58.40;27.42;;;2.10;88.90;;;;;;5066156;28;20117;-57
2023/02/09 04:45:45;;;;;;;51.72;27.02;;;2.00;88.70;;;;;;5082649;28;20042;-57
2023/02/09 04:48:12;;;;;;;59.13;27.65;;;2.00;88.70;;;;;;5082455;28;20509;-56
2023/02/09 04:50:37;;;;;;;62.55;27.83;;;2.00;88.70;;;;;;5082621;28;20033;-56
2023/02/09 04:53:03;;;;;;;62.33;27.67;;;2.00;88.70;;;;;;5082431;28;20081;-56
2023/02/09 04:55:28;;;;;;;42.33;26.65;;;2.00;88.70;;;;;;5082466;28;20032;-56
2023/02/09 05:00:38;;;;;;;45.40;26.95;;;2.00;88.50;;;;;;5083287;28;20111;-56
2023/02/09 05:03:04;;;;;;;51.33;26.92;;;2.00;88.50;;;;;;5085994;28;20028;-56
2023/02/09 05:05:29;;;;;;;46.28;25.73;;;1.90;88.40;;;;;;5086141;28;20100;-56
2023/02/09 05:07:55;;;;;;;48.47;25.63;;;1.90;88.40;;;;;;5087342;28;20039;-56
2023/02/09 05:10:20;;;;;;;45.75;26.88;;;1.90;88.40;;;;;;5085854;28;20029;-56
2023/02/09 05:12:46;;;;;;;41.53;24.85;;;1.90;88.40;;;;;;5087337;28;20024;-56
2023/02/09 05:15:12;;;;;;;43.35;25.67;;;1.90;88.30;;;;;;5085758;28;20335;-57
2023/02/09 05:17:38;;;;;;;41.80;26.55;;;1.90;88.30;;;;;;5085729;28;20074;-56
2023/02/09 05:20:04;;;;;;;39.67;26.35;;;1.90;88.30;;;;;;5085814;28;20044;-56
2023/02/09 05:22:29;;;;;;;40.13;24.48;;;1.90;88.40;;;;;;5085676;28;20029;-56
2023/02/09 05:24:55;;;;;;;49.92;27.55;;;1.80;88.30;;;;;;5087099;28;20094;-56
2023/02/09 05:27:20;;;;;;;39.45;25.95;;;1.80;88.30;;;;;;5087052;28;20039;-56
2023/02/09 05:29:46;;;;;;;44.53;25.58;;;1.90;88.30;;;;;;5085544;28;20025;-56
2023/02/09 05:32:12;;;;;;;40.45;27.08;;;1.80;88.20;;;;;;5085770;28;20020;-56
2023/02/09 05:34:37;;;;;;;39.55;24.77;;;1.80;88.40;;;;;;5087173;28;20112;-56
2023/02/09 05:37:03;;;;;;;45.15;25.30;;;1.80;88.70;;;;;;5086837;28;20064;-57
2023/02/09 05:39:28;;;;;;;51.28;27.42;;;1.80;89.00;;;;;;5086661;28;20032;-56
2023/02/09 05:44:38;;;;;;;43.88;27.58;;;1.80;88.80;;;;;;5086647;28;20074;-56
2023/02/09 05:47:03;;;;;;;53.13;27.55;;;1.70;89.00;;;;;;5085195;28;20024;-56
2023/02/09 05:49:29;;;;;;;51.08;28.30;;;1.70;89.20;;;;;;5086437;28;20035;-56
2023/02/09 05:51:55;;;;;;;50.50;27.88;;;1.70;89.40;;;;;;5085337;28;20047;-56
2023/02/09 05:54:20;;;;;;;48.72;28.60;;;1.70;89.40;;;;;;5068349;28;20074;-56
2023/02/09 05:56:46;;;;;;;46.92;26.27;;;1.70;89.60;;;;;;5085042;28;20045;-56
2023/02/09 05:59:11;;;;;;;45.40;26.77;;;1.70;89.60;;;;;;5068132;28;20032;-57
2023/02/09 06:01:37;;;;;;;45.75;26.27;;;1.70;89.60;;;;;;5084999;28;20464;-56
2023/02/09 06:04:02;;;;;;;48.20;27.52;;;1.70;89.70;;;;;;5090575;28;20097;-56
2023/02/09 06:06:28;;;;;;;63.47;29.00;;;1.70;89.60;;;;;;5105391;28;20039;-56
2023/02/09 06:08:53;;;;;;;91.65;32.55;;;1.70;89.80;;;;;;5105551;28;20032;-56
2023/02/09 06:11:19;;;;;;;76.20;29.65;;;1.70;89.80;;;;;;5104016;28;20138;-56
2023/02/09 06:13:44;;;;;;;82.90;28.67;;;1.70;89.80;;;;;;5085632;28;20020;-56
2023/02/09 06:16:10;;;;;;;74.50;30.58;;;1.60;89.80;;;;;;5106241;28;20032;-56
2023/02/09 06:18:37;;;;;;;66.85;28.52;;;1.60;89.80;;;;;;5104757;28;20081;-56
2023/02/09 06:21:02;;;;;;;82.28;29.10;;;1.60;89.90;;;;;;5087062;28;20147;-56
2023/02/09 06:23:28;;;;;;;110.88;34.15;;;1.60;89.90;;;;;;5104913;28;20031;-56
2023/02/09 06:25:54;;;;;;;99.43;33.75;;;1.70;90.00;;;;;;5102859;28;20024;-56
2023/02/09 06:28:19;;;;;;;78.05;31.40;;;1.60;89.90;;;;;;5095172;28;20103;-56
2023/02/09 06:30:52;;;;;;;142.10;36.17;;;1.60;89.80;;;;;;5101598;28;20028;-56
2023/02/09 06:33:18;;;;;;;101.47;32.83;;;1.60;89.80;;;;;;5103099;28;20084;-56
2023/02/09 06:35:44;;;;;;;95.15;30.13;;;1.60;89.80;;;;;;5102655;28;20043;-56
2023/02/09 06:38:09;;;;;;;104.65;32.05;;;1.60;89.80;;;;;;5103450;28;20036;-56
2023/02/09 06:40:35;;;;;;;128.68;33.47;;;1.60;89.80;;;;;;5104051;28;20032;-56
2023/02/09 06:43:00;;;;;;;92.35;31.35;;;1.60;89.90;;;;;;5105192;28;20031;-56
2023/02/09 06:45:26;;;;;;;134.57;34.25;;;1.60;89.80;;;;;;5104549;28;20046;-56
2023/02/09 06:47:52;;;;;;;109.40;31.02;;;1.60;89.80;;;;;;5103662;28;20429;-56
2023/02/09 06:50:17;;;;;;;105.07;30.13;;;1.60;89.70;;;;;;5104140;28;20127;-56
2023/02/09 06:52:43;;;;;;;117.30;34.13;;;1.60;89.70;;;;;;5104287;28;20020;-56
2023/02/09 06:55:08;;;;;;;127.47;35.00;;;1.60;89.70;;;;;;5100284;28;20028;-56
2023/02/09 06:57:34;;;;;;;165.60;36.35;;;1.60;89.60;;;;;;5086415;28;20373;-56
2023/02/09 07:00:00;;;;;;;108.03;30.75;;;1.50;89.60;;;;;;5105469;28;20051;-56
2023/02/09 07:02:26;;;;;;;112.65;31.02;;;1.60;89.60;;;;;;5103231;28;20066;-56
2023/02/09 07:04:51;;;;;;;104.00;31.73;;;1.60;89.50;;;;;;5086253;28;20031;-56
2023/02/09 07:07:17;;;;;;;141.57;31.83;;;1.50;89.40;;;;;;5105410;28;20036;-56
2023/02/09 07:09:42;;;;;;;103.90;30.42;;;1.60;89.50;;;;;;5103094;28;20114;-56
2023/02/09 07:12:08;;;;;;;125.82;29.95;;;1.50;89.40;;;;;;5090628;28;20042;-56
2023/02/09 07:14:33;;;;;;;87.00;29.67;;;1.50;89.40;;;;;;5099768;28;20032;-56
2023/02/09 07:16:59;;;;;;;88.75;30.67;;;1.50;89.40;;;;;;5083240;28;20432;-56
2023/02/09 07:19:25;;;;;;;107.80;30.15;;;1.40;89.40;;;;;;5068510;28;20028;-56
2023/02/09 07:21:50;;;;;;;87.35;29.60;;;1.40;89.40;;;;;;5100331;28;20031;-54
2023/02/09 07:24:16;;;;;;;96.88;31.00;;;1.40;89.40;;;;;;5097053;28;20028;-54
2023/02/09 07:26:41;;;;;;;80.43;29.95;;;1.40;89.50;;;;;;5100694;28;20042;-54
2023/02/09 07:29:07;;;;;;;85.63;30.27;;;1.40;89.50;;;;;;5097880;28;20060;-55
2023/02/09 07:31:32;;;;;;;88.20;29.20;;;1.40;89.50;;;;;;5086275;28;20051;-54
2023/02/09 07:33:58;;;;;;;99.18;28.85;;;1.40;89.60;;;;;;5101440;28;20340;-54
2023/02/09 07:36:24;;;;;;;91.10;30.67;;;1.40;89.60;;;;;;5103810;28;20102;-54
2023/02/09 07:38:49;;;;;;;67.15;28.67;;;1.40;89.60;;;;;;5104929;28;20056;-54
2023/02/09 07:41:16;;;;;;;69.82;29.90;;;1.40;89.50;;;;;;5100485;28;20032;-54
2023/02/09 07:43:42;;;;;;;61.40;28.27;;;1.40;89.40;;;;;;5102264;28;20036;-54
2023/02/09 07:46:08;;;;;;;70.65;29.63;;;1.30;89.50;;;;;;5104776;28;20103;-54
2023/02/09 07:48:34;;;;;;;56.50;27.23;;;1.30;89.50;;;;;;5102041;28;20470;-54
2023/02/09 07:50:59;;;;;;;63.25;29.10;;;1.30;89.60;;;;;;5101819;28;20056;-54
2023/02/09 07:53:25;;;;;;;75.22;28.65;;;1.30;89.50;;;;;;5103378;28;20020;-54
2023/02/09 07:55:51;;;;;;;61.20;27.05;;;1.30;89.50;;;;;;5103418;28;20040;-54
2023/02/09 07:58:18;;;;;;;64.35;28.02;;;1.30;89.50;;;;;;5103340;28;20043;-54
2023/02/09 08:00:44;;;;;;;55.95;27.63;;;1.30;89.50;;;;;;5086933;28;20048;-54
2023/02/09 08:03:10;;;;;;;75.82;29.45;;;1.30;89.50;;;;;;5084656;28;20028;-55
2023/02/09 08:05:44;;;;;;;61.97;27.63;;;1.30;89.60;;;;;;5111558;28;20024;-54
2023/02/09 08:08:09;;;;;;;67.85;26.88;;;1.30;89.70;;;;;;5102680;28;20019;-54
2023/02/09 08:10:35;;;;;;;68.10;27.65;;;1.30;89.70;;;;;;5095079;28;20020;-54
2023/02/09 08:13:01;;;;;;;56.58;26.08;;;1.30;89.70;;;;;;5112709;28;20363;-54
2023/02/09 08:15:49;;;;;;;59.70;26.65;;;1.30;89.90;;;;;;5091010;28;20032;-55
2023/02/09 08:18:20;;;;;;;62.40;29.27;;;1.40;89.80;;;;;;5111213;28;20039;-54
2023/02/09 08:20:45;;;;;;;79.10;29.55;;;1.40;89.80;;;;;;5095254;28;20031;-54
2023/02/09 08:23:31;;;;;;;75.95;30.23;;;1.40;89.90;;;;;;5110727;28;20495;-54
2023/02/09 08:25:57;;;;;;;78.88;31.80;;;1.40;90.00;;;;;;5092422;28;20047;-54
2023/02/09 08:28:22;;;;;;;100.45;30.95;;;1.40;90.00;;;;;;5092493;28;20111;-54
2023/02/09 08:30:48;;;;;;;89.18;31.95;;;1.40;90.10;;;;;;5114033;28;20020;-54
2023/02/09 08:33:13;;;;;;;87.10;30.38;;;1.40;90.10;;;;;;5093032;28;20166;-54
2023/02/09 08:35:39;;;;;;;79.63;33.17;;;1.30;90.10;;;;;;5103215;28;20058;-54
2023/02/09 08:38:05;;;;;;;101.57;31.55;;;1.40;90.20;;;;;;5106626;28;20040;-54
2023/02/09 08:40:30;;;;;;;89.75;32.47;;;1.40;90.30;;;;;;5090656;28;20028;-54
2023/02/09 08:42:56;;;;;;;125.40;35.42;;;1.40;90.30;;;;;;5108438;28;20043;-54
2023/02/09 08:45:22;;;;;;;94.13;34.65;;;1.40;90.40;;;;;;5104357;28;20028;-54
2023/02/09 08:47:48;;;;;;;97.32;32.38;;;1.20;90.40;;;;;;5086982;28;20058;-54
2023/02/09 08:50:13;;;;;;;115.53;34.22;;;1.40;90.50;;;;;;5105831;28;20097;-54
2023/02/09 08:52:39;;;;;;;127.47;35.38;;;1.40;90.50;;;;;;5089340;28;20036;-54
2023/02/09 08:55:05;;;;;;;110.82;34.53;;;1.40;90.70;;;;;;5103659;28;20374;-54
2023/02/09 08:57:30;;;;;;;92.82;33.33;;;1.50;90.80;;;;;;5104836;28;20047;-54
2023/02/09 08:59:56;;;;;;;107.32;33.13;;;1.40;90.70;;;;;;5085841;28;20084;-54
2023/02/09 09:02:21;;;;;;;110.38;31.48;;;1.50;90.80;;;;;;5104106;28;20035;-54
2023/02/09 09:04:47;;;;;;;101.05;33.22;;;1.50;90.80;;;;;;5085587;28;20054;-54
2023/02/09 09:07:13;;;;;;;88.47;30.98;;;1.40;90.90;;;;;;5104776;28;20093;-54
2023/02/09 09:09:38;;;;;;;98.00;31.90;;;1.50;90.90;;;;;;5098189;28;20032;-54
2023/02/09 09:12:04;;;;;;;95.70;31.30;;;1.40;90.90;;;;;;5087529;28;20027;-54
2023/02/09 09:14:30;;;;;;;87.68;30.73;;;1.50;91.00;;;;;;5091303;28;20020;-54
2023/02/09 09:16:57;;;;;;;115.97;35.47;;;1.50;91.10;;;;;;5104750;28;20039;-54
2023/02/09 09:19:22;;;;;;;79.28;29.65;;;1.50;91.10;;;;;;5105966;28;20024;-54
2023/02/09 09:21:48;;;;;;;82.22;29.80;;;1.50;91.20;;;;;;5105163;28;20054;-54
2023/02/09 09:24:15;;;;;;;81.18;29.92;;;1.50;91.10;;;;;;5084886;28;20024;-54
2023/02/09 09:26:40;;;;;;;72.53;29.58;;;1.60;91.10;;;;;;5103082;28;20024;-54
2023/02/09 09:29:06;;;;;;;95.95;31.13;;;1.60;91.10;;;;;;5096354;28;20351;-54
2023/02/09 09:31:32;;;;;;;107.93;33.85;;;1.60;91.20;;;;;;5103453;28;20032;-54
2023/02/09 09:33:58;;;;;;;93.55;34.00;;;1.60;91.30;;;;;;5106313;28;20038;-54
2023/02/09 09:36:23;;;;;;;102.75;30.25;;;1.60;91.40;;;;;;5086022;28;20028;-54
2023/02/09 09:38:49;;;;;;;87.25;32.95;;;1.60;91.30;;;;;;5106090;28;20107;-54
2023/02/09 09:41:35;;;;;;;89.85;31.30;;;1.70;91.30;;;;;;5116741;28;20046;-54
2023/02/09 09:44:00;;;;;;;;;;;1.70;91.40;;;;;;5072262;28;20036;-54
2023/02/09 09:46:37;;;;;;;89.03;29.98;;;1.70;91.40;;;;;;5105979;28;19927;-55
2023/02/09 09:49:03;;;;;;;182.00;37.28;;;1.70;91.40;;;;;;5093918;28;20024;-54
2023/02/09 09:51:36;;;;;;;275.65;45.35;;;1.80;91.50;;;;;;5085508;28;20127;-54
2023/02/09 09:54:04;;;;;;;122.20;34.33;;;1.80;91.60;;;;;;5101960;28;20035;-54
2023/02/09 09:56:30;;;;;;;97.78;31.58;;;1.80;91.60;;;;;;5099028;28;20081;-54
2023/02/09 09:58:55;;;;;;;120.32;32.33;;;1.90;91.60;;;;;;5107818;28;20047;-54
2023/02/09 10:01:22;;;;;;;109.32;31.83;;;1.90;91.60;;;;;;5116059;28;20127;-54
2023/02/09 10:03:47;;;;;;;121.32;33.78;;;1.90;91.90;;;;;;5086512;28;20040;-54
2023/02/09 10:06:20;;;;;;;103.55;32.83;;;1.90;91.60;;;;;;5090451;28;20084;-54
2023/02/09 10:08:51;;;;;;;97.85;30.45;;;1.90;91.60;;;;;;5117419;28;20054;-54
2023/02/09 10:11:19;;;;;;;94.32;31.27;;;2.00;91.60;;;;;;5106105;28;20415;-54
2023/02/09 10:13:54;;;;;;;86.53;29.60;;;2.00;91.60;;;;;;5086181;28;20474;-54
2023/02/09 10:16:33;;;;;;;108.03;31.55;;;2.00;91.60;;;;;;5119673;28;20071;-54
2023/02/09 10:19:15;;;;;;;154.50;34.55;;;2.00;91.70;;;;;;5112099;28;20036;-54
2023/02/09 10:21:41;;;;;;;118.70;32.10;;;2.10;91.80;;;;;;5109179;28;20040;-54
2023/02/09 10:24:35;;;;;;;108.25;32.17;;;2.10;91.80;;;;;;5104071;28;20100;-54
2023/02/09 10:27:13;;;;;;;136.15;33.60;;;2.10;91.70;;;;;;5100421;28;20036;-54
2023/02/09 10:29:38;;;;;;;117.85;33.38;;;2.10;91.80;;;;;;5102286;28;20070;-54
2023/02/09 10:32:08;;;;;;;116.43;33.08;;;2.10;91.90;;;;;;5103286;28;20028;-54
2023/02/09 10:34:36;;;;;;;124.93;31.90;;;2.10;91.90;;;;;;5103968;28;20028;-54
2023/02/09 10:37:12;;;;;;;153.35;34.10;;;2.20;91.90;;;;;;5104577;28;20062;-54
2023/02/09 10:39:38;;;;;;;118.10;30.20;;;2.20;92.00;;;;;;5113263;28;20035;-54
2023/02/09 10:42:30;;;;;;;139.57;32.67;;;2.20;92.00;;;;;;5108450;28;20032;-54
2023/02/09 10:44:56;;;;;;;102.20;30.45;;;2.20;91.90;;;;;;5089737;28;20031;-54
2023/02/09 10:47:25;;;;;;;107.50;29.73;;;2.30;91.80;;;;;;5101425;28;20145;-56
2023/02/09 10:50:09;;;;;;;107.50;29.35;;;2.20;91.80;;;;;;5103254;28;20020;-54
2023/02/09 10:52:36;;;;;;;128.50;30.75;;;2.30;91.90;;;;;;5109117;28;20032;-54
2023/02/09 10:55:14;;;;;;;110.43;30.67;;;2.30;91.90;;;;;;5093640;28;20108;-54
2023/02/09 10:57:40;;;;;;;89.78;29.65;;;2.30;91.90;;;;;;5113604;28;20165;-54
2023/02/09 11:00:15;;;;;;;113.68;31.73;;;2.40;92.00;;;;;;5109451;28;20032;-55
2023/02/09 11:03:17;;;;;;;93.93;29.05;;;2.30;92.00;;;;;;5107726;28;20050;-54
2023/02/09 11:05:43;;;;;;;120.22;30.27;;;2.40;92.00;;;;;;5027264;28;20050;-54
2023/02/09 11:08:16;;;;;;;94.68;28.65;;;2.40;92.10;;;;;;5100549;28;20032;-54
2023/02/09 11:11:01;;;;;;;105.40;30.25;;;2.40;92.10;;;;;;5084412;28;20474;-54
2023/02/09 11:13:27;;;;;;;104.35;31.33;;;2.40;92.10;;;;;;5111234;28;20044;-54
2023/02/09 11:16:05;;;;;;;121.00;30.02;;;2.50;92.20;;;;;;5068910;28;20038;-54
2023/02/09 11:18:34;;;;;;;87.47;30.27;;;2.50;92.20;;;;;;5100637;28;20016;-54
2023/02/09 11:21:09;;;;;;;83.47;28.88;;;2.50;92.10;;;;;;5103184;28;20028;-55
2023/02/09 11:23:47;;;;;;;100.55;29.88;;;2.50;92.10;;;;;;5101798;28;20020;-54
2023/02/09 11:26:15;;;;;;;90.95;29.50;;;2.50;92.10;;;;;;5102096;28;20087;-54
2023/02/09 11:28:45;;;;;;;98.38;30.45;;;2.60;92.10;;;;;;5102782;28;20020;-54
2023/02/09 11:31:32;;;;;;;102.95;30.23;;;2.60;92.10;;;;;;5102314;28;20340;-54
2023/02/09 11:34:19;;;;;;;102.63;29.08;;;2.60;92.20;;;;;;5101971;28;20356;-54
2023/02/09 11:36:57;;;;;;;94.93;28.85;;;2.70;92.20;;;;;;5103431;28;20053;-54
2023/02/09 11:39:36;;;;;;;108.00;31.63;;;2.70;92.20;;;;;;5087510;28;20036;-54
2023/02/09 11:45:01;;;;;;;81.45;29.67;;;2.80;92.20;;;;;;5087620;28;20059;-54
2023/02/09 11:47:32;;;;;;;94.90;27.90;;;2.80;92.20;;;;;;5103047;28;20057;-55
2023/02/09 11:49:59;;;;;;;109.72;29.13;;;2.80;92.20;;;;;;5086114;28;20032;-54
2023/02/09 11:52:39;;;;;;;105.15;28.23;;;2.80;92.20;;;;;;5102801;28;20031;-54
2023/02/09 11:55:28;;;;;;;88.22;29.27;;;2.90;92.10;;;;;;5070248;28;20062;-54
2023/02/09 11:58:05;;;;;;;117.13;30.00;;;2.70;92.00;;;;;;5088167;28;20436;-54
2023/02/09 12:00:42;;;;;;;120.90;29.90;;;2.90;92.00;;;;;;5070745;28;20032;-54
2023/02/09 12:03:10;;;;;;;103.05;30.83;;;3.00;92.10;;;;;;5083839;28;20032;-54
2023/02/09 12:05:36;;;;;;;135.50;33.63;;;3.00;92.20;;;;;;5069154;28;20096;-54
2023/02/09 12:08:37;;;;;;;146.50;33.50;;;3.00;92.10;;;;;;5102667;28;20031;-54
2023/02/09 12:11:22;;;;;;;111.47;28.98;;;3.10;92.00;;;;;;5105481;28;20107;-54
2023/02/09 12:13:58;;;;;;;130.25;30.67;;;3.10;92.00;;;;;;5105302;28;20028;-54
2023/02/09 12:16:25;;;;;;;238.50;43.38;;;3.20;91.90;;;;;;5105962;28;20039;-54
2023/02/09 12:18:52;;;;;;;179.77;35.42;;;3.20;91.80;;;;;;5090124;28;20028;-54
2023/02/09 12:21:27;;;;;;;169.32;33.05;;;3.30;91.70;;;;;;5106628;28;20387;-54
2023/02/09 12:23:52;;;;;;;152.90;32.67;;;3.30;91.70;;;;;;5106211;28;20050;-54
2023/02/09 12:26:20;;;;;;;230.80;37.53;;;3.30;91.50;;;;;;5108149;28;20349;-54
2023/02/09 12:29:02;;;;;;;198.38;35.88;;;3.40;91.50;;;;;;5108152;28;20035;-54
2023/02/09 12:31:28;;;;;;;278.90;45.58;;;3.40;91.40;;;;;;5105973;28;20053;-54
2023/02/09 12:33:56;;;;;;;180.63;34.65;;;3.40;91.30;;;;;;5089575;28;20046;-54
2023/02/09 12:36:30;;;;;;;186.38;35.70;;;3.40;91.30;;;;;;5107897;28;20032;-54
2023/02/09 12:38:56;;;;;;;133.45;30.08;;;3.40;91.20;;;;;;5106769;28;20080;-54
2023/02/09 12:41:27;;;;;;;154.95;33.55;;;3.40;91.20;;;;;;5107522;28;20050;-54
2023/02/09 12:44:07;;;;;;;177.55;35.22;;;3.50;91.20;;;;;;5104857;28;20035;-54
2023/02/09 12:46:51;;;;;;;149.70;33.30;;;3.50;91.10;;;;;;5106180;28;20043;-54
2023/02/09 12:49:21;;;;;;;136.90;31.13;;;3.60;91.20;;;;;;5106010;28;20031;-54
2023/02/09 12:51:52;;;;;;;116.20;28.42;;;3.60;91.10;;;;;;5116519;28;20128;-55